Terminal Aerodrome Forecast
Issued by NWS Wilmington, NC

Home | Current Version | Previous Version | Text Only | Print | Product List | Glossary On
Versions: 1 2 3 4 5 6 7 8 9 10 11 12 13 14 15
122
FTUS42 KILM 251240 AAA
TAFMYR
TAF AMD
KMYR 251240Z 2513/2612 00000KT 6SM BR SCT004
     FM251330 21005KT P6SM SCT004
     FM251600 21010KT P6SM SCT250
     FM252100 25011G18KT P6SM SCT050
     FM260400 30011KT P6SM SKC=

USA.gov is the U.S. government's official web portal to all federal, state and local government web resources and services.